createdAt,value
2018-04-08T00:00:38.624Z,97859.76
2018-04-08T00:03:06.137Z,97855.80
2018-04-08T00:05:33.697Z,97853.13
2018-04-08T00:08:01.196Z,97852.23
2018-04-08T00:10:28.716Z,97854.93
2018-04-08T00:12:56.231Z,97859.53
2018-04-08T00:15:23.697Z,97862.23
2018-04-08T00:17:51.180Z,97856.95
2018-04-08T00:20:18.652Z,97859.40
2018-04-08T00:22:46.141Z,97860.16
2018-04-08T00:25:13.644Z,97858.17
2018-04-08T00:27:41.219Z,97856.42
2018-04-08T00:30:08.692Z,97854.97
2018-04-08T00:32:36.239Z,97858.17
2018-04-08T00:35:03.706Z,97851.33
2018-04-08T00:37:31.195Z,97852.56
2018-04-08T00:39:58.668Z,97848.82
2018-04-08T00:42:26.177Z,97843.08
2018-04-08T00:44:53.652Z,97845.42
2018-04-08T00:47:21.139Z,97842.22
2018-04-08T00:49:48.621Z,97846.80
2018-04-08T00:52:16.106Z,97839.80
2018-04-08T00:54:43.595Z,97841.75
2018-04-08T00:57:11.086Z,97843.42
2018-04-08T00:59:38.573Z,97836.25
2018-04-08T01:02:06.069Z,97839.45
2018-04-08T01:04:33.540Z,97831.73
2018-04-08T01:07:01.049Z,97831.83
2018-04-08T01:09:28.519Z,97841.12
2018-04-08T01:11:56.010Z,97836.39
2018-04-08T01:14:23.476Z,97834.08
2018-04-08T01:16:50.952Z,97837.77
2018-04-08T01:19:18.451Z,97826.14
2018-04-08T01:21:46.280Z,97829.25
2018-04-08T01:24:13.760Z,97823.28
2018-04-08T01:26:41.369Z,97825.16
2018-04-08T01:29:08.861Z,97823.05
2018-04-08T01:31:36.332Z,97820.58
2018-04-08T01:34:03.820Z,97817.75
2018-04-08T01:36:31.379Z,97815.80
2018-04-08T01:38:58.872Z,97815.78
2018-04-08T01:41:26.352Z,97813.63
2018-04-08T01:43:53.839Z,97813.83
2018-04-08T01:46:21.298Z,97810.47
2018-04-08T01:48:48.783Z,97807.69
2018-04-08T01:51:16.252Z,97803.53
2018-04-08T01:53:43.751Z,97806.05
2018-04-08T01:56:11.211Z,97802.03
2018-04-08T01:58:38.715Z,97801.86
2018-04-08T02:01:06.273Z,97798.63
2018-04-08T02:03:33.763Z,97797.78
2018-04-08T02:06:01.244Z,97792.46
2018-04-08T02:08:28.723Z,97795.16
2018-04-08T02:10:56.192Z,97790.55
2018-04-08T02:13:23.675Z,97793.88
2018-04-08T02:15:51.145Z,97799.92
2018-04-08T02:18:18.643Z,97796.30
2018-04-08T02:20:46.160Z,97792.20
2018-04-08T02:23:13.636Z,97800.05
2018-04-08T02:25:41.140Z,97791.31
2018-04-08T02:28:08.599Z,97792.13
2018-04-08T02:30:36.140Z,97784.97
2018-04-08T02:33:03.644Z,97785.22
2018-04-08T02:35:31.168Z,97778.95
2018-04-08T02:37:58.681Z,97783.09
2018-04-08T02:40:26.215Z,97787.91
2018-04-08T02:42:53.689Z,97779.23
2018-04-08T02:45:21.192Z,97785.80
2018-04-08T02:47:48.655Z,97782.12
2018-04-08T02:50:16.152Z,97784.02
2018-04-08T02:52:43.616Z,97777.98
2018-04-08T02:55:11.103Z,97787.61
2018-04-08T02:57:38.593Z,97785.97
2018-04-08T03:00:06.089Z,97785.77
2018-04-08T03:02:33.575Z,97781.58
2018-04-08T03:05:01.068Z,97777.67
2018-04-08T03:07:28.537Z,97781.31
2018-04-08T03:09:56.045Z,97780.41
2018-04-08T03:12:23.515Z,97775.63
2018-04-08T03:14:51.007Z,97782.50
2018-04-08T03:17:18.562Z,97781.69
2018-04-08T03:19:46.176Z,97781.84
2018-04-08T03:22:13.692Z,97784.10
2018-04-08T03:24:41.198Z,97778.36
2018-04-08T03:27:08.664Z,97784.42
2018-04-08T03:29:36.124Z,97779.69
2018-04-08T03:32:03.612Z,97777.78
2018-04-08T03:34:31.080Z,97776.66
2018-04-08T03:36:58.583Z,97770.97
2018-04-08T03:39:26.049Z,97766.50
2018-04-08T03:41:53.536Z,97765.59
2018-04-08T03:44:20.999Z,97761.30
2018-04-08T03:46:48.496Z,97754.78
2018-04-08T03:49:16.008Z,97748.22
2018-04-08T03:51:43.508Z,97748.07
2018-04-08T03:54:10.967Z,97738.66
2018-04-08T03:56:38.455Z,97742.85
2018-04-08T03:59:05.919Z,97734.97
2018-04-08T04:01:33.410Z,97738.03
2018-04-08T04:04:00.877Z,97739.89
2018-04-08T04:06:28.367Z,97730.87
2018-04-08T04:08:55.847Z,97729.98
2018-04-08T04:11:23.336Z,97724.58
2018-04-08T04:13:50.811Z,97721.09
2018-04-08T04:16:18.296Z,97723.13
2018-04-08T04:18:57.585Z,97718.92
2018-04-08T04:21:36.926Z,97714.98
2018-04-08T04:24:16.296Z,97712.52
2018-04-08T04:26:43.829Z,97717.87
2018-04-08T04:29:11.302Z,97718.46
2018-04-08T04:31:38.787Z,97728.44
2018-04-08T04:34:06.264Z,97723.91
2018-04-08T04:36:33.753Z,97733.48
2018-04-08T04:39:01.314Z,97727.03
2018-04-08T04:41:28.804Z,97731.30
2018-04-08T04:43:56.275Z,97733.88
2018-04-08T04:46:23.779Z,97738.48
2018-04-08T04:48:51.249Z,97738.92
2018-04-08T04:51:18.753Z,97740.97
2018-04-08T04:53:46.272Z,97745.27
2018-04-08T04:56:13.739Z,97754.13
2018-04-08T04:58:41.244Z,97751.95
2018-04-08T05:01:08.780Z,97744.25
2018-04-08T05:03:36.267Z,97747.03
2018-04-08T05:06:03.757Z,97743.17
2018-04-08T05:08:31.240Z,97746.22
2018-04-08T05:10:58.783Z,97748.16
2018-04-08T05:13:26.267Z,97742.80
2018-04-08T05:15:53.832Z,97748.78
2018-04-08T05:18:21.340Z,97742.21
2018-04-08T05:20:48.812Z,97741.55
2018-04-08T05:23:16.308Z,97750.53
2018-04-08T05:25:43.775Z,97747.55
2018-04-08T05:28:11.277Z,97750.70
2018-04-08T05:30:38.755Z,97755.48
2018-04-08T05:33:06.241Z,97750.00
2018-04-08T05:35:33.734Z,97754.00
2018-04-08T05:38:01.216Z,97751.64
2018-04-08T05:40:28.680Z,97757.30
2018-04-08T05:42:56.500Z,97758.17
2018-04-08T05:45:23.963Z,97761.14
2018-04-08T05:47:51.449Z,97755.26
2018-04-08T05:50:19.008Z,97756.07
2018-04-08T05:52:46.501Z,97757.21
2018-04-08T05:55:13.980Z,97755.21
2018-04-08T05:57:41.515Z,97757.00
2018-04-08T06:00:08.990Z,97758.61
2018-04-08T06:02:36.497Z,97740.77
2018-04-08T06:05:04.044Z,97745.47
2018-04-08T06:07:31.532Z,97743.30
2018-04-08T06:09:59.024Z,97752.08
2018-04-08T06:12:26.513Z,97747.73
2018-04-08T06:14:54.053Z,97749.50
2018-04-08T06:17:21.561Z,97743.95
2018-04-08T06:19:49.120Z,97743.50
2018-04-08T06:22:16.676Z,97746.34
2018-04-08T06:24:44.166Z,97749.44
2018-04-08T06:27:11.632Z,97745.63
2018-04-08T06:29:39.122Z,97747.00
2018-04-08T06:32:06.593Z,97738.02
2018-04-08T06:34:34.088Z,97738.13
2018-04-08T06:37:01.552Z,97736.51
2018-04-08T06:39:29.051Z,97736.79
2018-04-08T06:41:56.533Z,97730.59
2018-04-08T06:44:24.106Z,97732.23
2018-04-08T06:46:51.629Z,97735.27
2018-04-08T06:49:19.135Z,97736.63
2018-04-08T06:51:46.604Z,97735.02
2018-04-08T06:54:14.126Z,97735.19
2018-04-08T06:56:41.596Z,97727.95
2018-04-08T06:59:09.092Z,97722.00
2018-04-08T07:01:36.576Z,97717.95
2018-04-08T07:04:04.069Z,97722.84
2018-04-08T07:06:31.630Z,97714.26
2018-04-08T07:08:59.106Z,97718.84
2018-04-08T07:11:26.601Z,97716.52
2018-04-08T07:13:54.095Z,97713.55
2018-04-08T07:16:21.697Z,97702.78
2018-04-08T07:18:49.169Z,97707.52
2018-04-08T07:21:16.681Z,97698.28
2018-04-08T07:23:44.144Z,97703.36
2018-04-08T07:26:11.657Z,97704.77
2018-04-08T07:28:39.156Z,97700.81
2018-04-08T07:31:06.649Z,97697.78
2018-04-08T07:33:34.206Z,97683.13
2018-04-08T07:36:01.692Z,97691.09
2018-04-08T07:38:29.159Z,97691.82
2018-04-08T07:40:56.667Z,97699.91
2018-04-08T07:43:24.140Z,97698.87
2018-04-08T07:45:51.665Z,97705.41
2018-04-08T07:48:19.165Z,97699.12
2018-04-08T07:50:46.714Z,97701.19
2018-04-08T07:53:14.410Z,97705.23
2018-04-08T07:55:41.900Z,97711.50
2018-04-08T07:58:10.485Z,97710.16
2018-04-08T08:00:37.977Z,97708.48
2018-04-08T08:03:05.460Z,97703.04
2018-04-08T08:05:32.964Z,97705.78
2018-04-08T08:08:00.443Z,97705.52
2018-04-08T08:10:27.948Z,97704.88
2018-04-08T08:12:55.449Z,97711.26
2018-04-08T08:15:22.935Z,97703.12
2018-04-08T08:17:50.612Z,97704.44
2018-04-08T08:20:18.178Z,97705.61
2018-04-08T08:22:46.241Z,97696.77
2018-04-08T08:25:13.748Z,97697.23
2018-04-08T08:27:41.230Z,97694.34
2018-04-08T08:30:08.714Z,97688.44
2018-04-08T08:32:36.210Z,97694.30
2018-04-08T08:35:03.681Z,97694.77
2018-04-08T08:39:55.233Z,97699.17
2018-04-08T08:42:22.724Z,97693.16
2018-04-08T08:44:50.227Z,97689.66
2018-04-08T08:47:17.714Z,97687.10
2018-04-08T08:49:45.267Z,97683.81
2018-04-08T08:52:12.785Z,97677.48
2018-04-08T08:54:40.264Z,97675.20
2018-04-08T08:57:07.752Z,97675.66
2018-04-08T08:59:35.224Z,97670.42
2018-04-08T09:02:02.713Z,97669.01
2018-04-08T09:04:30.177Z,97676.42
2018-04-08T09:06:57.664Z,97674.83
2018-04-08T09:09:25.160Z,97665.66
2018-04-08T09:11:52.767Z,97661.67
2018-04-08T09:14:20.321Z,97669.97
2018-04-08T09:16:47.812Z,97670.52
2018-04-08T09:19:20.996Z,97675.60
2018-04-08T09:21:54.198Z,97667.08
2018-04-08T09:24:24.244Z,97673.63
2018-04-08T09:26:51.756Z,97666.30
2018-04-08T09:29:19.225Z,97666.77
2018-04-08T09:31:46.726Z,97669.55
2018-04-08T09:34:14.204Z,97664.78
2018-04-08T09:36:41.784Z,97662.65
2018-04-08T09:39:09.275Z,97662.34
2018-04-08T09:41:36.795Z,97653.92
2018-04-08T09:44:04.261Z,97650.88
2018-04-08T09:49:13.860Z,97637.91
2018-04-08T09:51:41.356Z,97634.78
2018-04-08T09:54:08.836Z,97636.36
2018-04-08T09:56:36.330Z,97645.48
2018-04-08T09:59:03.817Z,97638.66
2018-04-08T10:04:38.899Z,97643.77
2018-04-08T10:07:06.400Z,97644.30
2018-04-08T10:09:33.931Z,97635.84
2018-04-08T10:12:01.488Z,97632.45
2018-04-08T10:14:28.964Z,97629.16
2018-04-08T10:16:56.521Z,97620.14
2018-04-08T10:19:24.439Z,97623.11
2018-04-08T10:21:51.923Z,97615.02
2018-04-08T10:24:19.424Z,97613.34
2018-04-08T10:26:47.384Z,97612.71
2018-04-08T10:29:14.972Z,97616.84
2018-04-08T10:31:42.397Z,97613.86
2018-04-08T10:34:09.893Z,97621.94
2018-04-08T10:36:37.481Z,97615.72
2018-04-08T10:39:04.979Z,97610.64
2018-04-08T10:41:32.452Z,97607.48
2018-04-08T10:43:59.975Z,97610.20
2018-04-08T10:46:27.469Z,97606.39
2018-04-08T10:48:55.135Z,97604.86
2018-04-08T10:51:22.694Z,97605.00
2018-04-08T10:53:50.188Z,97597.88
2018-04-08T10:56:17.723Z,97591.30
2018-04-08T10:58:45.426Z,97589.00
2018-04-08T11:01:12.987Z,97578.14
2018-04-08T11:03:40.492Z,97581.30
2018-04-08T11:06:07.965Z,97572.96
2018-04-08T11:08:35.462Z,97570.22
2018-04-08T11:11:02.948Z,97568.88
2018-04-08T11:13:30.448Z,97558.54
2018-04-08T11:15:57.924Z,97557.81
2018-04-08T11:18:25.425Z,97546.58
2018-04-08T11:20:53.104Z,97547.52
2018-04-08T11:23:20.611Z,97546.26
2018-04-08T11:25:48.152Z,97540.80
2018-04-08T11:28:15.683Z,97531.22
2018-04-08T11:30:43.148Z,97530.52
2018-04-08T11:33:10.625Z,97527.55
2018-04-08T11:35:38.122Z,97524.14
2018-04-08T11:38:05.593Z,97523.29
2018-04-08T11:40:33.094Z,97516.77
2018-04-08T11:43:00.573Z,97510.47
2018-04-08T11:45:28.059Z,97505.59
2018-04-08T11:47:55.534Z,97501.19
2018-04-08T11:50:23.068Z,97496.98
2018-04-08T11:52:50.549Z,97496.22
2018-04-08T11:55:18.133Z,97492.50
2018-04-08T11:57:45.683Z,97490.03
2018-04-08T12:00:13.194Z,97484.72
2018-04-08T12:02:40.682Z,97482.09
2018-04-08T12:05:08.176Z,97479.78
2018-04-08T12:07:35.660Z,97474.59
2018-04-08T12:10:03.160Z,97473.39
2018-04-08T12:12:30.675Z,97478.08
2018-04-08T12:14:58.194Z,97471.45
2018-04-08T12:17:25.672Z,97464.77
2018-04-08T12:19:53.168Z,97462.28
2018-04-08T12:22:20.655Z,97462.99
2018-04-08T12:24:48.144Z,97464.80
2018-04-08T12:27:15.644Z,97468.87
2018-04-08T12:29:43.152Z,97461.40
2018-04-08T12:32:10.624Z,97465.27
2018-04-08T12:34:38.202Z,97466.59
2018-04-08T12:37:05.760Z,97470.57
2018-04-08T12:39:33.256Z,97469.92
2018-04-08T12:42:00.752Z,97467.80
2018-04-08T12:44:28.232Z,97458.52
2018-04-08T12:46:55.748Z,97456.09
2018-04-08T12:49:23.217Z,97450.05
2018-04-08T12:51:50.723Z,97449.17
2018-04-08T12:54:18.220Z,97448.52
2018-04-08T12:56:45.791Z,97446.91
2018-04-08T12:59:13.265Z,97441.75
2018-04-08T13:01:40.763Z,97439.64
2018-04-08T13:04:08.248Z,97445.17
2018-04-08T13:06:35.789Z,97437.39
2018-04-08T13:09:03.271Z,97432.87
2018-04-08T13:11:30.879Z,97435.08
2018-04-08T13:13:58.404Z,97431.95
2018-04-08T13:16:25.916Z,97422.53
2018-04-08T13:18:53.387Z,97430.66
2018-04-08T13:21:20.901Z,97417.83
2018-04-08T13:23:48.376Z,97416.11
2018-04-08T13:26:15.946Z,97413.53
2018-04-08T13:28:43.468Z,97410.08
2018-04-08T13:31:10.964Z,97405.45
2018-04-08T13:33:38.472Z,97407.93
2018-04-08T13:36:05.984Z,97406.34
2018-04-08T13:38:33.464Z,97400.30
2018-04-08T13:41:00.961Z,97404.20
2018-04-08T13:43:28.436Z,97397.83
2018-04-08T13:45:55.936Z,97397.94
2018-04-08T13:48:23.431Z,97397.28
2018-04-08T13:50:51.101Z,97389.18
2018-04-08T13:53:18.708Z,97391.46
2018-04-08T13:55:46.428Z,97377.70
2018-04-08T13:58:14.021Z,97375.14
2018-04-08T14:00:41.532Z,97373.14
2018-04-08T14:03:09.097Z,97364.81
2018-04-08T14:05:36.567Z,97366.59
2018-04-08T14:08:04.093Z,97363.06
2018-04-08T14:10:31.580Z,97358.77
2018-04-08T14:12:59.109Z,97357.17
2018-04-08T14:15:26.620Z,97358.19
2018-04-08T14:17:54.136Z,97349.50
2018-04-08T14:20:21.645Z,97355.20
2018-04-08T14:22:49.136Z,97350.85
2018-04-08T14:25:16.616Z,97345.97
2018-04-08T14:27:44.144Z,97340.70
2018-04-08T14:30:11.623Z,97335.28
2018-04-08T14:32:39.111Z,97340.09
2018-04-08T14:35:06.595Z,97336.61
2018-04-08T14:37:34.181Z,97341.03
2018-04-08T14:40:01.672Z,97337.97
2018-04-08T14:42:29.161Z,97340.09
2018-04-08T14:44:56.626Z,97334.84
2018-04-08T14:47:24.121Z,97336.94
2018-04-08T14:49:51.603Z,97331.49
2018-04-08T14:52:20.820Z,97323.27
2018-04-08T14:54:48.358Z,97328.72
2018-04-08T14:57:16.029Z,97324.48
2018-04-08T14:59:43.541Z,97330.17
2018-04-08T15:02:11.028Z,97328.06
2018-04-08T15:04:38.501Z,97327.23
2018-04-08T15:07:06.097Z,97329.34
2018-04-08T15:09:33.620Z,97333.03
2018-04-08T15:12:01.101Z,97327.20
2018-04-08T15:14:28.628Z,97316.99
2018-04-08T15:16:56.146Z,97309.09
2018-04-08T15:19:23.733Z,97312.02
2018-04-08T15:21:51.208Z,97315.66
2018-04-08T15:24:18.712Z,97309.67
2018-04-08T15:26:46.304Z,97299.77
2018-04-08T15:29:13.797Z,97301.63
2018-04-08T15:31:41.366Z,97305.20
2018-04-08T15:34:08.861Z,97313.92
2018-04-08T15:36:36.346Z,97309.56
2018-04-08T15:39:03.860Z,97308.59
2018-04-08T15:41:31.619Z,97312.03
2018-04-08T15:43:59.169Z,97317.25
2018-04-08T15:46:26.683Z,97311.20
2018-04-08T15:48:54.183Z,97315.36
2018-04-08T15:51:21.731Z,97311.78
2018-04-08T15:53:49.192Z,97319.11
2018-04-08T15:56:16.767Z,97323.05
2018-04-08T15:58:44.336Z,97321.75
2018-04-08T16:01:11.825Z,97318.94
2018-04-08T16:03:39.335Z,97309.66
2018-04-08T16:06:06.815Z,97309.07
2018-04-08T16:08:34.331Z,97309.63
2018-04-08T16:11:01.804Z,97313.30
2018-04-08T16:13:29.332Z,97318.50
2018-04-08T16:15:56.812Z,97311.64
2018-04-08T16:18:24.280Z,97313.09
2018-04-08T16:20:51.808Z,97310.44
2018-04-08T16:23:19.279Z,97319.57
2018-04-08T16:25:46.836Z,97323.67
2018-04-08T16:28:14.312Z,97323.22
2018-04-08T16:30:41.817Z,97327.52
2018-04-08T16:33:09.358Z,97325.70
2018-04-08T16:35:36.846Z,97332.99
2018-04-08T16:38:04.351Z,97332.86
2018-04-08T16:40:31.847Z,97340.37
2018-04-08T16:42:59.340Z,97338.97
2018-04-08T16:45:26.850Z,97339.67
2018-04-08T16:47:54.410Z,97342.59
2018-04-08T16:50:21.932Z,97348.73
2018-04-08T16:52:49.406Z,97347.50
2018-04-08T16:55:16.896Z,97349.95
2018-04-08T16:57:44.371Z,97349.02
2018-04-08T17:00:11.873Z,97352.39
2018-04-08T17:02:39.351Z,97351.55
2018-04-08T17:05:06.843Z,97356.94
2018-04-08T17:07:34.340Z,97345.47
2018-04-08T17:10:01.882Z,97347.75
2018-04-08T17:12:29.332Z,97353.16
2018-04-08T17:14:56.844Z,97350.82
2018-04-08T17:17:24.326Z,97353.09
2018-04-08T17:19:51.840Z,97348.94
2018-04-08T17:22:19.353Z,97354.92
2018-04-08T17:24:46.964Z,97350.05
2018-04-08T17:27:14.532Z,97359.05
2018-04-08T17:29:42.028Z,97352.84
2018-04-08T17:32:09.508Z,97350.39
2018-04-08T17:34:37.015Z,97352.23
2018-04-08T17:37:04.487Z,97346.05
2018-04-08T17:39:33.037Z,97345.59
2018-04-08T17:42:00.508Z,97350.89
2018-04-08T17:44:28.009Z,97344.21
2018-04-08T17:46:55.500Z,97348.23
2018-04-08T17:49:22.985Z,97345.56
2018-04-08T17:51:50.484Z,97345.83
2018-04-08T17:54:17.954Z,97342.72
2018-04-08T17:56:45.492Z,97350.05
2018-04-08T17:59:13.022Z,97350.95
2018-04-08T18:01:40.526Z,97353.30
2018-04-08T18:04:08.021Z,97359.22
2018-04-08T18:06:35.570Z,97355.43
2018-04-08T18:09:03.053Z,97350.22
2018-04-08T18:11:30.568Z,97350.44
2018-04-08T18:13:58.048Z,97354.84
2018-04-08T18:16:25.554Z,97355.22
2018-04-08T18:18:53.034Z,97358.92
2018-04-08T18:21:20.565Z,97355.86
2018-04-08T18:23:48.109Z,97355.85
2018-04-08T18:26:15.599Z,97364.45
2018-04-08T18:28:43.077Z,97360.73
2018-04-08T18:31:10.624Z,97368.20
2018-04-08T18:33:38.104Z,97364.04
2018-04-08T18:36:05.600Z,97372.24
2018-04-08T18:38:33.080Z,97385.36
2018-04-08T18:41:00.593Z,97388.86
2018-04-08T18:43:28.071Z,97400.84
2018-04-08T18:45:55.568Z,97396.72
2018-04-08T18:48:23.040Z,97399.33
2018-04-08T18:50:50.565Z,97405.80
2018-04-08T18:53:18.038Z,97404.23
2018-04-08T18:55:45.520Z,97416.79
2018-04-08T18:58:13.027Z,97415.89
2018-04-08T19:00:40.584Z,97420.08
2018-04-08T19:03:08.082Z,97422.48
2018-04-08T19:05:35.575Z,97414.15
2018-04-08T19:08:03.059Z,97418.92
2018-04-08T19:10:30.539Z,97417.94
2018-04-08T19:12:58.650Z,97423.13
2018-04-08T19:15:26.116Z,97426.16
2018-04-08T19:17:59.300Z,97425.95
2018-04-08T19:20:26.784Z,97426.06
2018-04-08T19:22:54.301Z,97425.85
2018-04-08T19:25:21.772Z,97419.08
2018-04-08T19:27:49.267Z,97423.03
2018-04-08T19:30:21.356Z,97425.11
2018-04-08T19:32:48.840Z,97429.70
2018-04-08T19:35:16.309Z,97421.55
2018-04-08T19:37:43.841Z,97428.22
2018-04-08T19:40:11.352Z,97434.16
2018-04-08T19:42:38.861Z,97438.76
2018-04-08T19:45:06.329Z,97440.39
2018-04-08T19:47:33.838Z,97448.15
2018-04-08T19:50:01.322Z,97443.13
2018-04-08T19:52:28.856Z,97447.59
2018-04-08T19:54:56.343Z,97445.39
2018-04-08T19:57:23.829Z,97450.67
2018-04-08T19:59:51.310Z,97447.48
2018-04-08T20:02:18.827Z,97441.88
2018-04-08T20:04:46.517Z,97448.25
2018-04-08T20:07:14.114Z,97452.47
2018-04-08T20:09:41.777Z,97449.47
2018-04-08T20:12:09.441Z,97451.47
2018-04-08T20:14:37.305Z,97450.08
2018-04-08T20:17:05.018Z,97450.36
2018-04-08T20:19:32.744Z,97454.13
2018-04-08T20:22:00.309Z,97455.52
2018-04-08T20:24:27.926Z,97456.80
2018-04-08T20:26:55.770Z,97449.86
2018-04-08T20:29:23.499Z,97454.75
2018-04-08T20:31:51.041Z,97458.67
2018-04-08T20:34:18.768Z,97455.80
2018-04-08T20:36:46.329Z,97455.19
2018-04-08T20:39:14.035Z,97453.78
2018-04-08T20:41:41.692Z,97458.34
2018-04-08T20:44:09.335Z,97463.80
2018-04-08T20:46:36.863Z,97465.59
2018-04-08T20:49:04.739Z,97463.93
2018-04-08T20:51:32.338Z,97458.97
2018-04-08T20:54:00.041Z,97457.93
2018-04-08T20:56:27.767Z,97449.38
2018-04-08T20:58:55.488Z,97459.37
2018-04-08T21:01:23.093Z,97460.47
2018-04-08T21:03:50.856Z,97453.84
2018-04-08T21:06:18.620Z,97459.77
2018-04-08T21:08:46.238Z,97460.36
2018-04-08T21:11:14.053Z,97455.55
2018-04-08T21:13:41.812Z,97458.48
2018-04-08T21:16:09.424Z,97457.80
2018-04-08T21:18:37.138Z,97452.47
2018-04-08T21:21:04.802Z,97451.12
2018-04-08T21:23:32.341Z,97447.08
2018-04-08T21:26:00.123Z,97445.17
2018-04-08T21:28:27.785Z,97450.03
2018-04-08T21:30:55.273Z,97453.03
2018-04-08T21:33:22.745Z,97454.81
2018-04-08T21:35:50.232Z,97454.98
2018-04-08T21:38:17.710Z,97457.28
2018-04-08T21:40:45.203Z,97449.68
2018-04-08T21:43:12.664Z,97448.06
2018-04-08T21:45:40.144Z,97443.03
2018-04-08T21:48:07.616Z,97445.44
2018-04-08T21:50:35.175Z,97447.95
2018-04-08T21:53:02.644Z,97435.89
2018-04-08T21:55:30.142Z,97431.20
2018-04-08T21:57:57.608Z,97428.84
2018-04-08T22:00:25.105Z,97430.08
2018-04-08T22:02:52.607Z,97432.51
2018-04-08T22:05:20.112Z,97439.08
2018-04-08T22:07:47.698Z,97447.88
2018-04-08T22:10:15.184Z,97451.70
2018-04-08T22:12:42.731Z,97459.84
2018-04-08T22:15:10.220Z,97467.38
2018-04-08T22:17:37.687Z,97470.64
2018-04-08T22:20:05.268Z,97474.31
2018-04-08T22:22:32.866Z,97475.50
2018-04-08T22:25:00.335Z,97468.61
2018-04-08T22:27:27.836Z,97465.78
2018-04-08T22:29:55.301Z,97461.60
2018-04-08T22:32:22.900Z,97461.16
2018-04-08T22:34:50.367Z,97451.28
2018-04-08T22:37:17.877Z,97450.77
2018-04-08T22:39:45.444Z,97455.59
2018-04-08T22:42:13.001Z,97458.17
2018-04-08T22:44:40.540Z,97463.13
2018-04-08T22:47:08.028Z,97453.11
2018-04-08T22:49:35.496Z,97454.13
2018-04-08T22:52:02.991Z,97458.33
2018-04-08T22:54:30.464Z,97465.77
2018-04-08T22:56:57.955Z,97473.95
2018-04-08T22:59:25.416Z,97482.34
2018-04-08T23:01:52.928Z,97484.10
2018-04-08T23:04:20.400Z,97478.98
2018-04-08T23:06:47.884Z,97473.96
2018-04-08T23:09:15.398Z,97475.08
2018-04-08T23:11:42.971Z,97469.90
2018-04-08T23:14:10.440Z,97468.01
2018-04-08T23:16:37.932Z,97466.34
2018-04-08T23:19:05.397Z,97472.06
2018-04-08T23:21:32.973Z,97468.28
2018-04-08T23:24:00.440Z,97464.48
2018-04-08T23:26:27.952Z,97471.30
2018-04-08T23:28:55.531Z,97478.25
2018-04-08T23:31:23.046Z,97475.58
2018-04-08T23:33:50.508Z,97480.11
2018-04-08T23:36:17.973Z,97480.34
2018-04-08T23:38:45.464Z,97490.16
2018-04-08T23:41:12.924Z,97478.00
2018-04-08T23:43:40.429Z,97489.44
2018-04-08T23:46:07.919Z,97491.45
2018-04-08T23:48:35.413Z,97485.83
2018-04-08T23:51:02.897Z,97475.28
2018-04-08T23:53:30.379Z,97466.28
2018-04-08T23:55:57.876Z,97464.20
2018-04-08T23:58:25.355Z,97450.17
